sensor_id;sensor_type;location;lat;lon;timestamp;P1;durP1;ratioP1;P2;durP2;ratioP2
27402;SDS011;14862;49.494;8.530;2022-12-18T00:00:56;86.75;;;29.23;;
27402;SDS011;14862;49.494;8.530;2022-12-18T00:03:22;73.15;;;28.73;;
27402;SDS011;14862;49.494;8.530;2022-12-18T00:05:50;76.82;;;29.65;;
27402;SDS011;14862;49.494;8.530;2022-12-18T00:08:16;81.38;;;29.50;;
27402;SDS011;14862;49.494;8.530;2022-12-18T00:10:41;78.43;;;30.73;;
27402;SDS011;14862;49.494;8.530;2022-12-18T00:13:07;71.90;;;28.48;;
27402;SDS011;14862;49.494;8.530;2022-12-18T00:15:35;79.78;;;28.98;;
27402;SDS011;14862;49.494;8.530;2022-12-18T00:18:01;73.32;;;28.73;;
27402;SDS011;14862;49.494;8.530;2022-12-18T00:20:26;76.50;;;28.90;;
27402;SDS011;14862;49.494;8.530;2022-12-18T00:22:52;74.00;;;28.75;;
27402;SDS011;14862;49.494;8.530;2022-12-18T00:25:17;69.53;;;27.42;;
27402;SDS011;14862;49.494;8.530;2022-12-18T00:27:42;78.45;;;28.55;;
27402;SDS011;14862;49.494;8.530;2022-12-18T00:30:07;76.28;;;27.25;;
27402;SDS011;14862;49.494;8.530;2022-12-18T00:32:33;66.43;;;27.27;;
27402;SDS011;14862;49.494;8.530;2022-12-18T00:34:58;70.88;;;28.45;;
27402;SDS011;14862;49.494;8.530;2022-12-18T00:37:23;68.28;;;26.73;;
27402;SDS011;14862;49.494;8.530;2022-12-18T00:39:48;69.13;;;27.08;;
27402;SDS011;14862;49.494;8.530;2022-12-18T00:42:14;70.82;;;27.50;;
27402;SDS011;14862;49.494;8.530;2022-12-18T00:47:23;80.45;;;27.15;;
27402;SDS011;14862;49.494;8.530;2022-12-18T00:49:48;73.45;;;27.17;;
27402;SDS011;14862;49.494;8.530;2022-12-18T00:52:13;69.65;;;28.30;;
27402;SDS011;14862;49.494;8.530;2022-12-18T00:54:38;86.13;;;30.40;;
27402;SDS011;14862;49.494;8.530;2022-12-18T00:57:04;71.88;;;27.85;;
27402;SDS011;14862;49.494;8.530;2022-12-18T00:59:29;73.65;;;28.30;;
27402;SDS011;14862;49.494;8.530;2022-12-18T01:01:55;78.93;;;28.42;;
27402;SDS011;14862;49.494;8.530;2022-12-18T01:04:20;77.07;;;29.42;;
27402;SDS011;14862;49.494;8.530;2022-12-18T01:06:45;80.35;;;29.60;;
27402;SDS011;14862;49.494;8.530;2022-12-18T01:09:10;78.43;;;30.55;;
27402;SDS011;14862;49.494;8.530;2022-12-18T01:11:36;94.03;;;31.25;;
27402;SDS011;14862;49.494;8.530;2022-12-18T01:14:01;85.22;;;31.92;;
27402;SDS011;14862;49.494;8.530;2022-12-18T01:16:26;81.68;;;32.30;;
27402;SDS011;14862;49.494;8.530;2022-12-18T01:18:52;78.13;;;29.77;;
27402;SDS011;14862;49.494;8.530;2022-12-18T01:21:18;75.55;;;25.90;;
27402;SDS011;14862;49.494;8.530;2022-12-18T01:23:46;77.55;;;29.45;;
27402;SDS011;14862;49.494;8.530;2022-12-18T01:26:15;77.82;;;29.33;;
27402;SDS011;14862;49.494;8.530;2022-12-18T01:28:41;79.95;;;28.05;;
27402;SDS011;14862;49.494;8.530;2022-12-18T01:33:40;75.93;;;29.77;;
27402;SDS011;14862;49.494;8.530;2022-12-18T01:36:06;75.30;;;29.05;;
27402;SDS011;14862;49.494;8.530;2022-12-18T01:38:31;76.18;;;28.55;;
27402;SDS011;14862;49.494;8.530;2022-12-18T01:40:57;75.85;;;29.13;;
27402;SDS011;14862;49.494;8.530;2022-12-18T01:43:39;84.78;;;31.83;;
27402;SDS011;14862;49.494;8.530;2022-12-18T01:46:05;80.22;;;30.33;;
27402;SDS011;14862;49.494;8.530;2022-12-18T01:48:30;86.25;;;29.85;;
27402;SDS011;14862;49.494;8.530;2022-12-18T01:50:55;82.18;;;31.30;;
27402;SDS011;14862;49.494;8.530;2022-12-18T01:53:21;79.85;;;29.85;;
27402;SDS011;14862;49.494;8.530;2022-12-18T01:55:50;80.18;;;30.77;;
27402;SDS011;14862;49.494;8.530;2022-12-18T01:58:17;85.38;;;30.80;;
27402;SDS011;14862;49.494;8.530;2022-12-18T02:00:42;89.15;;;33.63;;
27402;SDS011;14862;49.494;8.530;2022-12-18T02:03:07;85.57;;;30.45;;
27402;SDS011;14862;49.494;8.530;2022-12-18T02:08:18;86.32;;;29.65;;
27402;SDS011;14862;49.494;8.530;2022-12-18T02:11:05;81.30;;;29.30;;
27402;SDS011;14862;49.494;8.530;2022-12-18T02:13:36;79.30;;;31.50;;
27402;SDS011;14862;49.494;8.530;2022-12-18T02:18:30;84.03;;;30.80;;
27402;SDS011;14862;49.494;8.530;2022-12-18T02:20:59;86.47;;;30.13;;
27402;SDS011;14862;49.494;8.530;2022-12-18T02:26:41;82.35;;;30.20;;
27402;SDS011;14862;49.494;8.530;2022-12-18T02:29:10;88.45;;;30.92;;
27402;SDS011;14862;49.494;8.530;2022-12-18T02:31:39;81.80;;;29.90;;
27402;SDS011;14862;49.494;8.530;2022-12-18T02:34:05;81.03;;;31.52;;
27402;SDS011;14862;49.494;8.530;2022-12-18T02:36:32;83.40;;;31.45;;
27402;SDS011;14862;49.494;8.530;2022-12-18T02:38:58;88.25;;;31.92;;
27402;SDS011;14862;49.494;8.530;2022-12-18T02:41:24;84.07;;;32.63;;
27402;SDS011;14862;49.494;8.530;2022-12-18T02:43:53;91.15;;;31.33;;
27402;SDS011;14862;49.494;8.530;2022-12-18T02:46:31;79.97;;;29.95;;
27402;SDS011;14862;49.494;8.530;2022-12-18T02:49:41;75.82;;;28.88;;
27402;SDS011;14862;49.494;8.530;2022-12-18T02:51:55;83.72;;;30.85;;
27402;SDS011;14862;49.494;8.530;2022-12-18T02:56:52;82.85;;;30.20;;
27402;SDS011;14862;49.494;8.530;2022-12-18T02:59:19;80.38;;;29.52;;
27402;SDS011;14862;49.494;8.530;2022-12-18T03:04:20;76.40;;;29.70;;
27402;SDS011;14862;49.494;8.530;2022-12-18T03:06:48;84.32;;;31.45;;
27402;SDS011;14862;49.494;8.530;2022-12-18T03:09:17;86.53;;;31.60;;
27402;SDS011;14862;49.494;8.530;2022-12-18T03:11:44;81.05;;;31.05;;
27402;SDS011;14862;49.494;8.530;2022-12-18T03:14:30;83.25;;;32.25;;
27402;SDS011;14862;49.494;8.530;2022-12-18T03:16:58;77.38;;;28.85;;
27402;SDS011;14862;49.494;8.530;2022-12-18T03:19:25;76.32;;;28.88;;
27402;SDS011;14862;49.494;8.530;2022-12-18T03:21:53;75.78;;;28.20;;
27402;SDS011;14862;49.494;8.530;2022-12-18T03:24:19;75.18;;;27.88;;
27402;SDS011;14862;49.494;8.530;2022-12-18T03:26:46;71.82;;;27.95;;
27402;SDS011;14862;49.494;8.530;2022-12-18T03:29:55;76.50;;;30.15;;
27402;SDS011;14862;49.494;8.530;2022-12-18T03:32:11;74.72;;;28.70;;
27402;SDS011;14862;49.494;8.530;2022-12-18T03:34:38;72.90;;;28.25;;
27402;SDS011;14862;49.494;8.530;2022-12-18T03:37:05;75.13;;;30.63;;
27402;SDS011;14862;49.494;8.530;2022-12-18T03:39:30;72.13;;;28.40;;
27402;SDS011;14862;49.494;8.530;2022-12-18T03:44:39;67.53;;;25.90;;
27402;SDS011;14862;49.494;8.530;2022-12-18T03:49:47;69.53;;;27.88;;
27402;SDS011;14862;49.494;8.530;2022-12-18T03:52:18;74.05;;;27.67;;
27402;SDS011;14862;49.494;8.530;2022-12-18T03:54:45;75.32;;;28.15;;
27402;SDS011;14862;49.494;8.530;2022-12-18T03:57:12;72.45;;;26.48;;
27402;SDS011;14862;49.494;8.530;2022-12-18T03:59:38;78.45;;;27.92;;
27402;SDS011;14862;49.494;8.530;2022-12-18T04:02:04;77.88;;;28.95;;
27402;SDS011;14862;49.494;8.530;2022-12-18T04:04:30;76.30;;;29.90;;
27402;SDS011;14862;49.494;8.530;2022-12-18T04:06:56;75.63;;;31.35;;
27402;SDS011;14862;49.494;8.530;2022-12-18T04:09:22;79.95;;;30.10;;
27402;SDS011;14862;49.494;8.530;2022-12-18T04:11:47;76.93;;;29.25;;
27402;SDS011;14862;49.494;8.530;2022-12-18T04:14:13;80.13;;;28.70;;
27402;SDS011;14862;49.494;8.530;2022-12-18T04:16:38;73.13;;;28.70;;
27402;SDS011;14862;49.494;8.530;2022-12-18T04:19:04;76.28;;;29.85;;
27402;SDS011;14862;49.494;8.530;2022-12-18T04:21:29;89.32;;;29.92;;
27402;SDS011;14862;49.494;8.530;2022-12-18T04:23:54;85.10;;;30.70;;
27402;SDS011;14862;49.494;8.530;2022-12-18T04:26:19;75.22;;;28.45;;
27402;SDS011;14862;49.494;8.530;2022-12-18T04:28:45;87.75;;;31.13;;
27402;SDS011;14862;49.494;8.530;2022-12-18T04:31:10;84.60;;;28.67;;
27402;SDS011;14862;49.494;8.530;2022-12-18T04:33:35;86.20;;;30.88;;
27402;SDS011;14862;49.494;8.530;2022-12-18T04:36:00;83.88;;;29.30;;
27402;SDS011;14862;49.494;8.530;2022-12-18T04:38:26;81.85;;;29.23;;
27402;SDS011;14862;49.494;8.530;2022-12-18T04:40:51;80.75;;;29.48;;
27402;SDS011;14862;49.494;8.530;2022-12-18T04:43:16;79.90;;;28.20;;
27402;SDS011;14862;49.494;8.530;2022-12-18T04:45:41;89.88;;;31.42;;
27402;SDS011;14862;49.494;8.530;2022-12-18T04:48:07;91.88;;;29.27;;
27402;SDS011;14862;49.494;8.530;2022-12-18T04:50:32;96.28;;;29.30;;
27402;SDS011;14862;49.494;8.530;2022-12-18T04:52:57;83.13;;;29.40;;
27402;SDS011;14862;49.494;8.530;2022-12-18T04:55:26;107.13;;;31.67;;
27402;SDS011;14862;49.494;8.530;2022-12-18T04:57:51;86.32;;;29.73;;
27402;SDS011;14862;49.494;8.530;2022-12-18T05:00:16;93.97;;;31.02;;
27402;SDS011;14862;49.494;8.530;2022-12-18T05:02:42;90.47;;;29.92;;
27402;SDS011;14862;49.494;8.530;2022-12-18T05:05:07;83.78;;;31.10;;
27402;SDS011;14862;49.494;8.530;2022-12-18T05:07:32;97.95;;;30.25;;
27402;SDS011;14862;49.494;8.530;2022-12-18T05:09:58;91.18;;;30.98;;
27402;SDS011;14862;49.494;8.530;2022-12-18T05:12:23;95.95;;;31.27;;
27402;SDS011;14862;49.494;8.530;2022-12-18T05:14:48;95.30;;;33.47;;
27402;SDS011;14862;49.494;8.530;2022-12-18T05:17:13;90.55;;;30.80;;
27402;SDS011;14862;49.494;8.530;2022-12-18T05:19:38;94.25;;;32.33;;
27402;SDS011;14862;49.494;8.530;2022-12-18T05:22:07;91.93;;;32.08;;
27402;SDS011;14862;49.494;8.530;2022-12-18T05:24:32;95.45;;;31.60;;
27402;SDS011;14862;49.494;8.530;2022-12-18T05:26:57;108.18;;;33.17;;
27402;SDS011;14862;49.494;8.530;2022-12-18T05:29:22;108.38;;;33.17;;
27402;SDS011;14862;49.494;8.530;2022-12-18T05:31:48;92.78;;;28.73;;
27402;SDS011;14862;49.494;8.530;2022-12-18T05:34:13;112.00;;;33.17;;
27402;SDS011;14862;49.494;8.530;2022-12-18T05:36:38;90.65;;;32.40;;
27402;SDS011;14862;49.494;8.530;2022-12-18T05:39:03;101.70;;;33.95;;
27402;SDS011;14862;49.494;8.530;2022-12-18T05:41:29;101.53;;;33.17;;
27402;SDS011;14862;49.494;8.530;2022-12-18T05:43:54;96.50;;;31.90;;
27402;SDS011;14862;49.494;8.530;2022-12-18T05:46:19;103.55;;;31.13;;
27402;SDS011;14862;49.494;8.530;2022-12-18T05:48:44;102.25;;;34.72;;
27402;SDS011;14862;49.494;8.530;2022-12-18T05:51:13;95.80;;;34.20;;
27402;SDS011;14862;49.494;8.530;2022-12-18T05:53:39;111.45;;;33.25;;
27402;SDS011;14862;49.494;8.530;2022-12-18T05:56:06;104.07;;;31.48;;
27402;SDS011;14862;49.494;8.530;2022-12-18T05:58:32;95.88;;;32.80;;
27402;SDS011;14862;49.494;8.530;2022-12-18T06:00:57;98.13;;;32.33;;
27402;SDS011;14862;49.494;8.530;2022-12-18T06:03:23;97.07;;;31.60;;
27402;SDS011;14862;49.494;8.530;2022-12-18T06:05:48;105.47;;;33.22;;
27402;SDS011;14862;49.494;8.530;2022-12-18T06:08:14;106.90;;;36.72;;
27402;SDS011;14862;49.494;8.530;2022-12-18T06:10:39;99.53;;;32.28;;
27402;SDS011;14862;49.494;8.530;2022-12-18T06:13:05;137.30;;;37.45;;
27402;SDS011;14862;49.494;8.530;2022-12-18T06:15:30;102.68;;;34.38;;
27402;SDS011;14862;49.494;8.530;2022-12-18T06:17:55;104.90;;;33.10;;
27402;SDS011;14862;49.494;8.530;2022-12-18T06:20:20;97.93;;;34.25;;
27402;SDS011;14862;49.494;8.530;2022-12-18T06:22:46;107.93;;;33.97;;
27402;SDS011;14862;49.494;8.530;2022-12-18T06:25:11;114.43;;;35.85;;
27402;SDS011;14862;49.494;8.530;2022-12-18T06:27:36;107.40;;;32.28;;
27402;SDS011;14862;49.494;8.530;2022-12-18T06:30:02;105.05;;;34.50;;
27402;SDS011;14862;49.494;8.530;2022-12-18T06:32:27;117.88;;;35.92;;
27402;SDS011;14862;49.494;8.530;2022-12-18T06:34:52;111.22;;;36.60;;
27402;SDS011;14862;49.494;8.530;2022-12-18T06:37:18;111.15;;;34.88;;
27402;SDS011;14862;49.494;8.530;2022-12-18T06:39:44;104.82;;;34.67;;
27402;SDS011;14862;49.494;8.530;2022-12-18T06:42:09;110.53;;;36.22;;
27402;SDS011;14862;49.494;8.530;2022-12-18T06:44:34;111.07;;;37.40;;
27402;SDS011;14862;49.494;8.530;2022-12-18T06:46:59;107.68;;;33.00;;
27402;SDS011;14862;49.494;8.530;2022-12-18T06:49:24;114.65;;;34.78;;
27402;SDS011;14862;49.494;8.530;2022-12-18T06:51:50;125.38;;;37.72;;
27402;SDS011;14862;49.494;8.530;2022-12-18T06:54:15;117.50;;;40.17;;
27402;SDS011;14862;49.494;8.530;2022-12-18T06:56:40;115.03;;;34.65;;
27402;SDS011;14862;49.494;8.530;2022-12-18T06:59:05;112.90;;;38.15;;
27402;SDS011;14862;49.494;8.530;2022-12-18T07:01:30;127.30;;;37.90;;
27402;SDS011;14862;49.494;8.530;2022-12-18T07:03:56;109.55;;;36.85;;
27402;SDS011;14862;49.494;8.530;2022-12-18T07:06:22;112.53;;;35.63;;
27402;SDS011;14862;49.494;8.530;2022-12-18T07:08:48;114.32;;;35.22;;
27402;SDS011;14862;49.494;8.530;2022-12-18T07:11:14;111.43;;;35.78;;
27402;SDS011;14862;49.494;8.530;2022-12-18T07:13:39;120.22;;;37.45;;
27402;SDS011;14862;49.494;8.530;2022-12-18T07:16:08;110.70;;;36.10;;
27402;SDS011;14862;49.494;8.530;2022-12-18T07:18:34;112.43;;;35.28;;
27402;SDS011;14862;49.494;8.530;2022-12-18T07:21:06;102.97;;;35.92;;
27402;SDS011;14862;49.494;8.530;2022-12-18T07:23:32;106.47;;;37.67;;
27402;SDS011;14862;49.494;8.530;2022-12-18T07:26:00;112.25;;;37.50;;
27402;SDS011;14862;49.494;8.530;2022-12-18T07:28:25;118.40;;;35.95;;
27402;SDS011;14862;49.494;8.530;2022-12-18T07:30:50;107.65;;;37.25;;
27402;SDS011;14862;49.494;8.530;2022-12-18T07:33:15;115.57;;;37.47;;
27402;SDS011;14862;49.494;8.530;2022-12-18T07:35:41;103.28;;;34.70;;
27402;SDS011;14862;49.494;8.530;2022-12-18T07:38:07;110.78;;;35.90;;
27402;SDS011;14862;49.494;8.530;2022-12-18T07:40:32;105.70;;;35.30;;
27402;SDS011;14862;49.494;8.530;2022-12-18T07:42:57;109.65;;;36.50;;
27402;SDS011;14862;49.494;8.530;2022-12-18T07:45:23;99.80;;;34.65;;
27402;SDS011;14862;49.494;8.530;2022-12-18T07:47:48;95.32;;;34.50;;
27402;SDS011;14862;49.494;8.530;2022-12-18T07:50:13;114.10;;;35.77;;
27402;SDS011;14862;49.494;8.530;2022-12-18T07:52:38;105.97;;;33.60;;
27402;SDS011;14862;49.494;8.530;2022-12-18T07:55:04;112.45;;;35.05;;
27402;SDS011;14862;49.494;8.530;2022-12-18T07:57:29;114.32;;;35.15;;
27402;SDS011;14862;49.494;8.530;2022-12-18T07:59:54;118.90;;;39.70;;
27402;SDS011;14862;49.494;8.530;2022-12-18T08:02:19;104.05;;;33.90;;
27402;SDS011;14862;49.494;8.530;2022-12-18T08:04:45;113.40;;;39.35;;
27402;SDS011;14862;49.494;8.530;2022-12-18T08:07:10;106.13;;;36.08;;
27402;SDS011;14862;49.494;8.530;2022-12-18T08:09:35;105.05;;;34.95;;
27402;SDS011;14862;49.494;8.530;2022-12-18T08:12:00;95.53;;;33.20;;
27402;SDS011;14862;49.494;8.530;2022-12-18T08:14:25;97.47;;;33.78;;
27402;SDS011;14862;49.494;8.530;2022-12-18T08:16:51;104.50;;;34.35;;
27402;SDS011;14862;49.494;8.530;2022-12-18T08:19:16;101.95;;;33.05;;
27402;SDS011;14862;49.494;8.530;2022-12-18T08:21:41;92.50;;;34.35;;
27402;SDS011;14862;49.494;8.530;2022-12-18T08:24:08;94.38;;;35.85;;
27402;SDS011;14862;49.494;8.530;2022-12-18T08:26:33;97.35;;;34.25;;
27402;SDS011;14862;49.494;8.530;2022-12-18T08:28:59;93.97;;;32.53;;
27402;SDS011;14862;49.494;8.530;2022-12-18T08:31:25;88.45;;;33.53;;
27402;SDS011;14862;49.494;8.530;2022-12-18T08:33:51;93.90;;;32.80;;
27402;SDS011;14862;49.494;8.530;2022-12-18T08:36:17;94.43;;;34.08;;
27402;SDS011;14862;49.494;8.530;2022-12-18T08:38:42;87.22;;;32.47;;
27402;SDS011;14862;49.494;8.530;2022-12-18T08:41:09;85.90;;;31.70;;
27402;SDS011;14862;49.494;8.530;2022-12-18T08:43:34;88.90;;;32.70;;
27402;SDS011;14862;49.494;8.530;2022-12-18T08:46:18;85.55;;;32.97;;
27402;SDS011;14862;49.494;8.530;2022-12-18T08:48:44;83.55;;;33.97;;
27402;SDS011;14862;49.494;8.530;2022-12-18T08:51:09;89.63;;;32.75;;
27402;SDS011;14862;49.494;8.530;2022-12-18T08:53:35;78.32;;;31.08;;
27402;SDS011;14862;49.494;8.530;2022-12-18T08:56:01;88.20;;;32.63;;
27402;SDS011;14862;49.494;8.530;2022-12-18T08:58:26;87.80;;;35.13;;
27402;SDS011;14862;49.494;8.530;2022-12-18T09:00:51;82.63;;;33.00;;
27402;SDS011;14862;49.494;8.530;2022-12-18T09:03:18;78.13;;;30.92;;
27402;SDS011;14862;49.494;8.530;2022-12-18T09:05:43;78.43;;;31.45;;
27402;SDS011;14862;49.494;8.530;2022-12-18T09:08:10;70.32;;;30.20;;
27402;SDS011;14862;49.494;8.530;2022-12-18T09:10:41;75.38;;;30.30;;
27402;SDS011;14862;49.494;8.530;2022-12-18T09:13:06;78.68;;;31.40;;
27402;SDS011;14862;49.494;8.530;2022-12-18T09:15:32;76.00;;;31.63;;
27402;SDS011;14862;49.494;8.530;2022-12-18T09:17:57;76.50;;;31.65;;
27402;SDS011;14862;49.494;8.530;2022-12-18T09:20:22;73.85;;;31.10;;
27402;SDS011;14862;49.494;8.530;2022-12-18T09:22:48;64.15;;;29.83;;
27402;SDS011;14862;49.494;8.530;2022-12-18T09:25:13;73.10;;;32.50;;
27402;SDS011;14862;49.494;8.530;2022-12-18T09:27:38;73.90;;;33.50;;
27402;SDS011;14862;49.494;8.530;2022-12-18T09:30:04;73.68;;;30.83;;
27402;SDS011;14862;49.494;8.530;2022-12-18T09:32:29;69.80;;;27.92;;
27402;SDS011;14862;49.494;8.530;2022-12-18T09:34:55;65.38;;;28.73;;
27402;SDS011;14862;49.494;8.530;2022-12-18T09:37:20;69.55;;;29.90;;
27402;SDS011;14862;49.494;8.530;2022-12-18T09:39:45;74.15;;;30.80;;
27402;SDS011;14862;49.494;8.530;2022-12-18T09:42:17;77.65;;;32.85;;
27402;SDS011;14862;49.494;8.530;2022-12-18T09:44:43;74.75;;;31.48;;
27402;SDS011;14862;49.494;8.530;2022-12-18T09:47:18;80.10;;;34.38;;
27402;SDS011;14862;49.494;8.530;2022-12-18T09:52:17;76.43;;;29.70;;
27402;SDS011;14862;49.494;8.530;2022-12-18T09:54:46;70.88;;;28.48;;
27402;SDS011;14862;49.494;8.530;2022-12-18T09:57:15;69.15;;;29.77;;
27402;SDS011;14862;49.494;8.530;2022-12-18T09:59:41;81.40;;;34.40;;
27402;SDS011;14862;49.494;8.530;2022-12-18T10:02:15;81.80;;;32.80;;
27402;SDS011;14862;49.494;8.530;2022-12-18T10:04:41;75.18;;;31.65;;
27402;SDS011;14862;49.494;8.530;2022-12-18T10:07:13;77.75;;;33.30;;
27402;SDS011;14862;49.494;8.530;2022-12-18T10:09:51;80.72;;;32.90;;
27402;SDS011;14862;49.494;8.530;2022-12-18T10:27:28;84.88;;;33.60;;
27402;SDS011;14862;49.494;8.530;2022-12-18T10:29:54;76.93;;;33.30;;
27402;SDS011;14862;49.494;8.530;2022-12-18T10:32:21;80.15;;;34.50;;
27402;SDS011;14862;49.494;8.530;2022-12-18T10:34:46;81.30;;;34.85;;
27402;SDS011;14862;49.494;8.530;2022-12-18T10:37:16;80.25;;;34.42;;
27402;SDS011;14862;49.494;8.530;2022-12-18T10:39:42;82.60;;;34.47;;
27402;SDS011;14862;49.494;8.530;2022-12-18T10:42:11;83.43;;;34.38;;
27402;SDS011;14862;49.494;8.530;2022-12-18T10:44:39;78.07;;;33.92;;
27402;SDS011;14862;49.494;8.530;2022-12-18T10:47:04;79.72;;;33.55;;
27402;SDS011;14862;49.494;8.530;2022-12-18T10:49:32;82.82;;;33.22;;
27402;SDS011;14862;49.494;8.530;2022-12-18T10:52:05;82.78;;;34.70;;
27402;SDS011;14862;49.494;8.530;2022-12-18T10:54:30;77.00;;;33.45;;
27402;SDS011;14862;49.494;8.530;2022-12-18T10:57:13;77.22;;;33.60;;
27402;SDS011;14862;49.494;8.530;2022-12-18T10:59:49;74.68;;;34.05;;
27402;SDS011;14862;49.494;8.530;2022-12-18T11:02:24;75.15;;;33.35;;
27402;SDS011;14862;49.494;8.530;2022-12-18T11:04:51;75.20;;;33.50;;
27402;SDS011;14862;49.494;8.530;2022-12-18T11:07:16;89.00;;;39.17;;
27402;SDS011;14862;49.494;8.530;2022-12-18T11:09:42;81.50;;;35.25;;
27402;SDS011;14862;49.494;8.530;2022-12-18T11:14:42;95.90;;;37.42;;
27402;SDS011;14862;49.494;8.530;2022-12-18T11:22:19;90.75;;;37.47;;
27402;SDS011;14862;49.494;8.530;2022-12-18T11:24:49;83.38;;;38.08;;
27402;SDS011;14862;49.494;8.530;2022-12-18T11:27:17;91.33;;;40.40;;
27402;SDS011;14862;49.494;8.530;2022-12-18T11:29:43;98.05;;;39.55;;
27402;SDS011;14862;49.494;8.530;2022-12-18T11:32:13;90.93;;;38.70;;
27402;SDS011;14862;49.494;8.530;2022-12-18T11:34:46;88.53;;;38.22;;
27402;SDS011;14862;49.494;8.530;2022-12-18T11:37:13;96.35;;;39.80;;
27402;SDS011;14862;49.494;8.530;2022-12-18T11:39:45;92.70;;;38.90;;
27402;SDS011;14862;49.494;8.530;2022-12-18T11:42:17;95.28;;;40.67;;
27402;SDS011;14862;49.494;8.530;2022-12-18T11:49:35;97.78;;;40.67;;
27402;SDS011;14862;49.494;8.530;2022-12-18T11:52:15;91.18;;;39.45;;
27402;SDS011;14862;49.494;8.530;2022-12-18T11:54:41;89.90;;;37.60;;
27402;SDS011;14862;49.494;8.530;2022-12-18T12:15:46;91.80;;;40.88;;
27402;SDS011;14862;49.494;8.530;2022-12-18T12:20:42;85.93;;;38.72;;
27402;SDS011;14862;49.494;8.530;2022-12-18T12:25:59;95.63;;;38.13;;
27402;SDS011;14862;49.494;8.530;2022-12-18T12:31:11;95.22;;;39.13;;
27402;SDS011;14862;49.494;8.530;2022-12-18T12:33:44;95.57;;;40.05;;
27402;SDS011;14862;49.494;8.530;2022-12-18T12:39:06;82.63;;;38.10;;
27402;SDS011;14862;49.494;8.530;2022-12-18T12:41:32;85.80;;;37.85;;
27402;SDS011;14862;49.494;8.530;2022-12-18T12:44:59;81.90;;;35.60;;
27402;SDS011;14862;49.494;8.530;2022-12-18T12:47:38;89.70;;;38.53;;
27402;SDS011;14862;49.494;8.530;2022-12-18T12:49:57;91.57;;;37.78;;
27402;SDS011;14862;49.494;8.530;2022-12-18T12:54:54;86.63;;;36.97;;
27402;SDS011;14862;49.494;8.530;2022-12-18T13:05:02;91.43;;;38.40;;
27402;SDS011;14862;49.494;8.530;2022-12-18T13:07:34;90.38;;;39.60;;
27402;SDS011;14862;49.494;8.530;2022-12-18T13:12:51;84.93;;;34.33;;
27402;SDS011;14862;49.494;8.530;2022-12-18T13:15:23;83.65;;;36.05;;
27402;SDS011;14862;49.494;8.530;2022-12-18T13:18:02;81.82;;;33.45;;
27402;SDS011;14862;49.494;8.530;2022-12-18T13:20:32;85.93;;;34.22;;
27402;SDS011;14862;49.494;8.530;2022-12-18T13:22:58;86.63;;;38.38;;
27402;SDS011;14862;49.494;8.530;2022-12-18T13:25:36;83.43;;;34.90;;
27402;SDS011;14862;49.494;8.530;2022-12-18T13:35:39;75.65;;;34.97;;
27402;SDS011;14862;49.494;8.530;2022-12-18T13:43:24;76.22;;;32.80;;
27402;SDS011;14862;49.494;8.530;2022-12-18T13:45:59;79.00;;;34.15;;
27402;SDS011;14862;49.494;8.530;2022-12-18T13:48:25;79.60;;;35.47;;
27402;SDS011;14862;49.494;8.530;2022-12-18T13:50:53;81.50;;;34.83;;
27402;SDS011;14862;49.494;8.530;2022-12-18T13:53:21;77.90;;;34.97;;
27402;SDS011;14862;49.494;8.530;2022-12-18T13:55:48;84.05;;;36.03;;
27402;SDS011;14862;49.494;8.530;2022-12-18T13:58:14;75.40;;;34.38;;
27402;SDS011;14862;49.494;8.530;2022-12-18T14:00:43;81.03;;;35.45;;
27402;SDS011;14862;49.494;8.530;2022-12-18T14:03:18;79.78;;;35.55;;
27402;SDS011;14862;49.494;8.530;2022-12-18T14:05:44;83.32;;;35.40;;
27402;SDS011;14862;49.494;8.530;2022-12-18T14:08:11;77.22;;;34.95;;
27402;SDS011;14862;49.494;8.530;2022-12-18T14:10:41;81.53;;;34.58;;
27402;SDS011;14862;49.494;8.530;2022-12-18T14:13:07;78.97;;;35.95;;
27402;SDS011;14862;49.494;8.530;2022-12-18T14:20:39;85.25;;;37.05;;
27402;SDS011;14862;49.494;8.530;2022-12-18T14:23:23;80.03;;;35.90;;
27402;SDS011;14862;49.494;8.530;2022-12-18T14:28:14;73.50;;;34.65;;
27402;SDS011;14862;49.494;8.530;2022-12-18T14:30:41;83.85;;;37.13;;
27402;SDS011;14862;49.494;8.530;2022-12-18T14:33:13;82.47;;;37.72;;
27402;SDS011;14862;49.494;8.530;2022-12-18T14:35:40;87.40;;;38.10;;
27402;SDS011;14862;49.494;8.530;2022-12-18T14:40:44;88.00;;;37.97;;
27402;SDS011;14862;49.494;8.530;2022-12-18T14:43:10;90.88;;;39.30;;
27402;SDS011;14862;49.494;8.530;2022-12-18T14:45:36;88.32;;;37.63;;
27402;SDS011;14862;49.494;8.530;2022-12-18T14:48:05;82.45;;;37.78;;
27402;SDS011;14862;49.494;8.530;2022-12-18T14:50:31;91.20;;;38.63;;
27402;SDS011;14862;49.494;8.530;2022-12-18T14:52:56;92.47;;;38.25;;
27402;SDS011;14862;49.494;8.530;2022-12-18T14:55:21;90.32;;;37.53;;
27402;SDS011;14862;49.494;8.530;2022-12-18T14:57:49;85.65;;;35.65;;
27402;SDS011;14862;49.494;8.530;2022-12-18T15:00:16;81.03;;;38.42;;
27402;SDS011;14862;49.494;8.530;2022-12-18T15:02:42;85.25;;;38.42;;
27402;SDS011;14862;49.494;8.530;2022-12-18T15:07:40;91.72;;;41.78;;
27402;SDS011;14862;49.494;8.530;2022-12-18T15:12:38;86.20;;;37.80;;
27402;SDS011;14862;49.494;8.530;2022-12-18T15:15:05;84.90;;;38.55;;
27402;SDS011;14862;49.494;8.530;2022-12-18T15:17:30;80.45;;;38.22;;
27402;SDS011;14862;49.494;8.530;2022-12-18T15:20:00;88.28;;;39.33;;
27402;SDS011;14862;49.494;8.530;2022-12-18T15:22:27;85.25;;;36.65;;
27402;SDS011;14862;49.494;8.530;2022-12-18T15:24:53;87.05;;;39.78;;
27402;SDS011;14862;49.494;8.530;2022-12-18T15:27:42;86.93;;;39.38;;
27402;SDS011;14862;49.494;8.530;2022-12-18T15:32:36;88.15;;;38.50;;
27402;SDS011;14862;49.494;8.530;2022-12-18T15:35:23;95.50;;;40.53;;
27402;SDS011;14862;49.494;8.530;2022-12-18T15:37:47;84.07;;;38.08;;
27402;SDS011;14862;49.494;8.530;2022-12-18T15:40:13;89.07;;;38.50;;
27402;SDS011;14862;49.494;8.530;2022-12-18T15:42:39;88.95;;;37.58;;
27402;SDS011;14862;49.494;8.530;2022-12-18T15:45:22;85.32;;;38.58;;
27402;SDS011;14862;49.494;8.530;2022-12-18T15:47:48;85.13;;;38.70;;
27402;SDS011;14862;49.494;8.530;2022-12-18T15:50:13;84.57;;;37.55;;
27402;SDS011;14862;49.494;8.530;2022-12-18T15:52:39;81.95;;;37.17;;
27402;SDS011;14862;49.494;8.530;2022-12-18T15:55:10;78.18;;;36.50;;
27402;SDS011;14862;49.494;8.530;2022-12-18T15:57:54;78.45;;;35.33;;
27402;SDS011;14862;49.494;8.530;2022-12-18T16:00:19;80.50;;;35.63;;
27402;SDS011;14862;49.494;8.530;2022-12-18T16:02:44;84.82;;;36.88;;
27402;SDS011;14862;49.494;8.530;2022-12-18T16:05:13;79.72;;;36.75;;
27402;SDS011;14862;49.494;8.530;2022-12-18T16:07:39;84.43;;;36.47;;
27402;SDS011;14862;49.494;8.530;2022-12-18T16:10:04;83.93;;;36.35;;
27402;SDS011;14862;49.494;8.530;2022-12-18T16:12:30;83.30;;;37.72;;
27402;SDS011;14862;49.494;8.530;2022-12-18T16:14:55;75.18;;;36.30;;
27402;SDS011;14862;49.494;8.530;2022-12-18T16:17:20;88.75;;;38.35;;
27402;SDS011;14862;49.494;8.530;2022-12-18T16:19:46;84.55;;;37.47;;
27402;SDS011;14862;49.494;8.530;2022-12-18T16:22:15;84.50;;;38.15;;
27402;SDS011;14862;49.494;8.530;2022-12-18T16:24:42;82.00;;;37.03;;
27402;SDS011;14862;49.494;8.530;2022-12-18T16:27:08;87.85;;;37.53;;